Flight Track Log - Related Links

Times and Time Zones

All times are in EDT time to prevent confusion due to time zone crossing. See the UAL5822 flight status page for this flight to view local times or setup timezone preferences in your user account.

Time Position Orientation Groundspeed Altitude Reporting Facility
EDT Latitude Longitude Course Direction KTS MPH feet Rate Location/Type
Wed 06:49:33 AM 42.9500 -71.4167 16° North 159 183 1,100  Level KA90
Wed 06:50:40 AM 43.0061 -71.3953 16° North 186 214 3,900 2,551 Climbing Boston Center
Wed 06:51:40 AM 43.0608 -71.4342 333° Northwest 198 228 6,500 2,600 Climbing Boston Center
Wed 06:52:40 AM 43.0928 -71.5217 297° West 253 291 9,100 2,100 Climbing Boston Center
Wed 06:53:40 AM 43.0978 -71.6297 274° West 267 307 10,700 1,100 Climbing Boston Center
Wed 06:54:40 AM 43.1008 -71.7661 272° West 340 391 11,300 1,200 Climbing Boston Center
Wed 06:55:40 AM 43.1056 -71.9111 273° West 377 434 13,100 1,900 Climbing Boston Center
Wed 06:56:40 AM 43.1106 -72.0561 273° West 383 441 15,100 2,000 Climbing Boston Center
Wed 06:57:40 AM 43.1150 -72.1956 273° West 378 435 17,100 1,550 Climbing Boston Center
Wed 06:58:40 AM 43.1194 -72.3206 273° West 373 429 18,200 1,200 Climbing Boston Center
Wed 06:59:40 AM 43.1297 -72.4628 276° West 373 429 19,500 1,350 Climbing Boston Center
Wed 07:00:40 AM 43.1317 -72.6108 271° West 378 435 20,900 1,400 Climbing Boston Center
Wed 07:01:40 AM 43.1294 -72.7617 269° West 385 443 22,300 1,400 Climbing Boston Center
Wed 07:02:40 AM 43.1308 -72.9236 271° West 385 443 23,700 1,400 Climbing Boston Center
Wed 07:03:40 AM 43.1386 -73.0717 274° West 391 450 25,100 1,350 Climbing Boston Center
Wed 07:04:40 AM 43.1417 -73.2197 272° West 391 450 26,400 1,150 Climbing Boston Center
Wed 07:05:40 AM 43.1431 -73.3336 271° West 391 450 27,400 1,250 Climbing Boston Center
Wed 07:06:40 AM 43.1436 -73.5014 270° West 381 438 28,900 1,450 Climbing Boston Center
Wed 07:07:40 AM 43.1464 -73.6408 272° West 375 432 30,300 1,250 Climbing Boston Center
Wed 07:08:40 AM 43.1472 -73.7661 271° West 368 423 31,400 1,250 Climbing Boston Center
Wed 07:09:40 AM 43.1497 -73.9028 271° West 363 418 32,800 1,300 Climbing Boston Center
Wed 07:10:40 AM 43.1519 -74.0367 271° West 363 418 34,000 1,250 Climbing Boston Center
Wed 07:11:40 AM 43.1542 -74.1706 271° West 363 418 35,300 1,000 Climbing Boston Center
Wed 07:12:40 AM 43.1542 -74.3014 270° West 363 418 36,000 350 Climbing Boston Center
Wed 07:13:40 AM 43.1581 -74.4411 272° West 363 418 36,000  Level Boston Center
Wed 07:14:40 AM 43.1594 -74.5919 271° West 380 437 36,000  Level Boston Center
Wed 07:15:40 AM 43.1608 -74.7428 271° West 392 451 36,000  Level Boston Center
Wed 07:16:40 AM 43.1597 -74.8967 269° West 402 463 36,000  Level Boston Center
Wed 07:17:40 AM 43.1606 -75.0503 270° West 402 463 36,000  Level Boston Center
Wed 07:18:40 AM 43.1606 -75.2211 270° West 402 463 36,000 -50 Level Boston Center
Wed 07:19:40 AM 43.1608 -75.3750 270° West 402 463 35,900  Descending Boston Center
Wed 07:21:14 AM 43.1500 -75.5833 266° West 400 460 36,000 39 Climbing Toronto Center
Wed 07:22:14 AM 43.1500 -75.7333 270° West 400 460 36,000  Level Toronto Center
Wed 07:23:02 AM 43.1611 -75.8864 276° West 402 463 36,000 -56 Level Cleveland Center
Wed 07:24:02 AM 43.1608 -76.0344 270° West 402 463 35,900  Descending Cleveland Center
Wed 07:25:02 AM 43.1603 -76.1825 270° West 402 463 36,000 50 Climbing Cleveland Center
Wed 07:26:02 AM 43.1614 -76.3247 271° West 396 456 36,000  Level Cleveland Center
Wed 07:27:02 AM 43.1603 -76.4703 269° West 391 450 36,000  Level Cleveland Center
Wed 07:28:02 AM 43.1614 -76.6153 271° West 385 443 36,000  Level Cleveland Center
Wed 07:29:02 AM 43.1594 -76.7464 269° West 385 443 36,000  Level Cleveland Center
Wed 07:30:02 AM 43.1597 -76.8858 270° West 385 443 36,000  Level Cleveland Center
Wed 07:31:02 AM 43.1581 -77.0283 269° West 385 443 36,000  Level Cleveland Center
Wed 07:32:02 AM 43.1561 -77.1708 269° West 385 443 36,000  Level Cleveland Center
Wed 07:33:02 AM 43.1558 -77.3075 270° West 380 437 36,000  Level Cleveland Center
Wed 07:34:02 AM 43.1556 -77.4497 270° West 374 430 36,000  Level Cleveland Center
Wed 07:35:02 AM 43.1531 -77.5864 269° West 374 430 36,000  Level Cleveland Center
Wed 07:36:02 AM 43.1522 -77.7261 270° West 374 430 36,000  Level Cleveland Center
Wed 07:37:02 AM 43.1494 -77.8686 269° West 374 430 36,000  Level Cleveland Center
Wed 07:38:02 AM 43.1486 -78.0108 270° West 374 430 36,000  Level Cleveland Center
Wed 07:39:02 AM 43.1453 -78.1533 268° West 374 430 36,000  Level Cleveland Center
Wed 07:40:02 AM 43.1444 -78.3097 270° West 380 437 36,000  Level Cleveland Center
Wed 07:41:02 AM 43.1408 -78.4522 268° West 380 437 36,000  Level Cleveland Center
Wed 07:42:02 AM 43.1372 -78.5917 268° West 380 437 36,000  Level Cleveland Center
Wed 07:43:02 AM 43.1331 -78.7314 268° West 380 437 36,000  Level Cleveland Center
Wed 07:44:02 AM 43.1292 -78.8764 268° West 380 437 36,000  Level Cleveland Center
Wed 07:45:02 AM 43.1250 -79.0217 268° West 385 443 36,000  Level Cleveland Center
Wed 07:46:02 AM 43.1183 -79.1639 266° West 385 443 36,000  Level Cleveland Center
Wed 07:47:02 AM 43.1161 -79.3119 269° West 385 443 36,000  Level Cleveland Center
Wed 07:48:14 AM 43.1000 -79.4667 262° West 390 449 36,000  Level Toronto Center
Wed 07:49:14 AM 43.1000 -79.6167 270° West 380 437 36,000  Level Toronto Center
Wed 07:50:14 AM 43.0833 -79.7667 261° West 380 437 36,000  Level Toronto Center
Wed 07:51:14 AM 43.0833 -79.9000 270° West 370 426 36,000  Level Toronto Center
Wed 07:52:14 AM 43.0833 -80.0500 270° West 370 426 36,000  Level Toronto Center
Wed 07:53:14 AM 43.0667 -80.1833 260° West 370 426 36,000  Level Toronto Center
Wed 07:54:14 AM 43.0667 -80.3167 270° West 370 426 36,000  Level Toronto Center
Wed 07:55:14 AM 43.0667 -80.4833 270° West 370 426 36,000  Level Toronto Center
Wed 07:56:14 AM 43.0500 -80.6167 260° West 370 426 36,000  Level Toronto Center
Wed 07:57:14 AM 43.0500 -80.7500 270° West 370 426 36,000  Level Toronto Center
Wed 07:58:14 AM 43.0333 -80.8833 260° West 370 426 36,000  Level Toronto Center
Wed 07:59:14 AM 43.0167 -81.0167 260° West 370 426 36,000  Level Toronto Center
Wed 08:00:14 AM 43.0167 -81.1667 270° West 370 426 36,000  Level Toronto Center
Wed 08:01:14 AM 43.0167 -81.3000 270° West 360 414 36,000  Level Toronto Center
Wed 08:02:14 AM 43.0167 -81.4333 270° West 360 414 36,000  Level Toronto Center
Wed 08:03:14 AM 43.0167 -81.5667 270° West 360 414 36,000  Level Toronto Center
Wed 08:04:14 AM 43.0167 -81.7000 270° West 350 403 36,000  Level Toronto Center
Wed 08:05:14 AM 43.0167 -81.8500 270° West 350 403 36,000  Level Toronto Center
Wed 08:06:14 AM 43.0000 -81.9833 260° West 350 403 36,000  Level Toronto Center
Wed 08:07:14 AM 43.0000 -82.1167 270° West 350 403 36,000  Level Toronto Center
Wed 08:08:14 AM 43.0000 -82.2333 270° West 340 391 36,000  Level Toronto Center
Wed 08:09:14 AM 43.0000 -82.3667 270° West 340 391 36,000  Level Toronto Center
Wed 08:10:14 AM 43.0000 -82.5000 270° West 340 391 36,000  Level Toronto Center
Wed 08:11:14 AM 43.0000 -82.6167 270° West 340 391 36,000  Level Toronto Center
Wed 08:12:14 AM 42.9833 -82.7500 260° West 340 391 36,000  Level Toronto Center
Wed 08:13:14 AM 42.9833 -82.9000 270° West 340 391 36,000 -450 Level Toronto Center
Wed 08:14:14 AM 42.9833 -83.0333 270° West 350 403 35,100 -950 Descending Toronto Center
Wed 08:15:14 AM 42.9833 -83.1500 270° West 350 403 34,100 -1,000 Descending Toronto Center
Wed 08:16:14 AM 42.9667 -83.3000 261° West 360 414 33,100 -1,000 Descending Toronto Center
Wed 08:17:14 AM 42.9667 -83.4167 270° West 360 414 32,100 -1,000 Descending Toronto Center
Wed 08:18:14 AM 42.9667 -83.5500 270° West 360 414 31,100 -1,000 Descending Toronto Center
Wed 08:19:14 AM 42.9667 -83.6833 270° West 360 414 30,100 -550 Descending Toronto Center
Wed 08:20:14 AM 42.9333 -83.8167 251° West 370 426 30,000 -38 Descending Toronto Center
Wed 08:21:53 AM 42.9378 -84.0456 272° West 366 421 30,000  Level Chicago Center
Wed 08:22:14 AM 42.9167 -84.1000 242° Southwest 360 414 30,000  Level Toronto Center
Wed 08:22:55 AM 42.9244 -84.1808 278° West 362 417 30,000  Level Chicago Center
Wed 08:23:26 AM 42.9117 -84.2772 260° West 370 426 30,000  Level Cleveland Center
Wed 08:24:59 AM 42.8947 -84.4772 263° West 360 414 30,000  Level Chicago Center
Wed 08:26:01 AM 42.8817 -84.6100 262° West 355 409 30,000  Level Chicago Center
Wed 08:27:03 AM 42.8675 -84.7439 262° West 357 411 30,000  Level Chicago Center
Wed 08:28:05 AM 42.8542 -84.8786 262° West 358 412 30,000  Level Chicago Center
Wed 08:29:07 AM 42.8392 -85.0114 261° West 356 410 30,000 -290 Level Chicago Center
Wed 08:30:09 AM 42.8228 -85.1681 262° West 349 402 29,400 -1,220 Descending Chicago Center
Wed 08:31:10 AM 42.8086 -85.3014 262° West 353 406 27,500 -1,902 Descending Chicago Center
Wed 08:32:12 AM 42.7939 -85.4319 261° West 351 404 25,500 -1,839 Descending Chicago Center
Wed 08:33:14 AM 42.7756 -85.5592 259° West 344 396 23,700 -1,742 Descending Chicago Center
Wed 08:34:16 AM 42.7533 -85.6819 256° West 336 387 21,900 -1,694 Descending Chicago Center
Wed 08:35:18 AM 42.7308 -85.8069 256° West 337 388 20,200 -919 Descending Chicago Center
Wed 08:36:20 AM 42.7078 -85.9344 256° West 343 395 20,000 -97 Descending Chicago Center
Wed 08:37:22 AM 42.6856 -86.0578 256° West 339 390 20,000  Level Chicago Center
Wed 08:38:24 AM 42.6589 -86.1972 255° West 321 369 20,000  Level Chicago Center
Wed 08:39:26 AM 42.6369 -86.3167 256° West 323 372 20,000 -387 Level Chicago Center
Wed 08:40:28 AM 42.6147 -86.4347 256° West 322 371 19,200 -1,113 Descending Chicago Center
Wed 08:41:30 AM 42.5917 -86.5550 255° West 329 379 17,700 -1,645 Descending Chicago Center
Wed 08:42:32 AM 42.5697 -86.6744 256° West 327 376 15,800 -1,935 Descending Chicago Center
Wed 08:43:34 AM 42.5450 -86.7925 254° West 327 376 13,700 -1,984 Descending Chicago Center
Wed 08:44:36 AM 42.5128 -86.9053 249° West 323 372 11,700 -1,854 Descending Chicago Center
Wed 08:45:37 AM 42.4731 -87.0436 249° West 329 379 9,900 -1,073 Descending Chicago Center
Wed 08:46:39 AM 42.4453 -87.1464 250° West 295 339 9,500 -629 Descending Chicago Center
Wed 08:47:41 AM 42.4203 -87.2389 250° West 265 305 8,600 -1,161 Descending Chicago Center
Wed 08:48:43 AM 42.3939 -87.3347 250° West 267 307 7,100 -1,548 Descending Chicago Center
Wed 08:49:45 AM 42.3375 -87.4047 223° Southwest 267 307 5,400 -1,016 Descending Chicago Center
Wed 08:50:47 AM 42.2719 -87.4258 193° South 277 319 5,000 -244 Descending Chicago Center
Wed 08:51:48 AM 42.1828 -87.4294 182° South 275 316 4,900 -488 Descending Chicago Center
Wed 08:52:50 AM 42.1056 -87.4200 175° South 278 320 4,000 -466 Descending Chicago Center
Wed 08:53:31 AM 42.0667 -87.4167 176° South 248 285 4,100 59 Climbing Chicago TRACON
Wed 08:54:31 AM 42.0000 -87.4667 209° Southwest 230 265 4,100 -50 Level Chicago TRACON
Wed 08:55:31 AM 41.9833 -87.5500 255° West 212 244 4,000 -50 Descending Chicago TRACON
Wed 08:56:31 AM 41.9833 -87.6167 270° West 176 203 4,000 -48 Level Chicago TRACON
Wed 08:57:37 AM 41.9833 -87.6833 270° West 182 209 3,900 -526 Descending Chicago TRACON
Wed 08:58:25 AM 41.9833 -87.7500 270° West 197 227 3,000 -1,111 Descending Chicago TRACON
Wed 08:59:25 AM 41.9833 -87.8167 270° West 168 193 1,900 -905 Descending Chicago TRACON
Wed 09:00:31 AM 41.9833 -87.8667 270° West 133 153 1,100 -727 Descending Chicago TRACON

Login

Don't have an account? Register now (free) for customized features, flight alerts, and more!